sensor_id;sensor_type;location;lat;lon;timestamp;P1;durP1;ratioP1;P2;durP2;ratioP2
9294;SDS011;4686;44.496;11.324;2023-04-08T00:00:24;36.90;;;29.53;;
9294;SDS011;4686;44.496;11.324;2023-04-08T00:02:52;41.93;;;32.87;;
9294;SDS011;4686;44.496;11.324;2023-04-08T00:05:19;38.20;;;30.23;;
9294;SDS011;4686;44.496;11.324;2023-04-08T00:07:49;39.40;;;29.73;;
9294;SDS011;4686;44.496;11.324;2023-04-08T00:10:16;35.43;;;30.00;;
9294;SDS011;4686;44.496;11.324;2023-04-08T00:12:43;40.40;;;30.50;;
9294;SDS011;4686;44.496;11.324;2023-04-08T00:15:10;32.60;;;27.80;;
9294;SDS011;4686;44.496;11.324;2023-04-08T00:17:39;33.43;;;28.30;;
9294;SDS011;4686;44.496;11.324;2023-04-08T00:20:07;31.90;;;27.23;;
9294;SDS011;4686;44.496;11.324;2023-04-08T00:22:34;29.43;;;25.60;;
9294;SDS011;4686;44.496;11.324;2023-04-08T00:25:02;29.90;;;25.60;;
9294;SDS011;4686;44.496;11.324;2023-04-08T00:27:31;30.17;;;25.63;;
9294;SDS011;4686;44.496;11.324;2023-04-08T00:29:58;34.03;;;25.97;;
9294;SDS011;4686;44.496;11.324;2023-04-08T00:32:25;36.87;;;28.03;;
9294;SDS011;4686;44.496;11.324;2023-04-08T00:34:54;37.10;;;29.60;;
9294;SDS011;4686;44.496;11.324;2023-04-08T00:37:21;36.90;;;29.40;;
9294;SDS011;4686;44.496;11.324;2023-04-08T00:39:49;57.53;;;33.13;;
9294;SDS011;4686;44.496;11.324;2023-04-08T00:42:18;45.30;;;34.70;;
9294;SDS011;4686;44.496;11.324;2023-04-08T00:44:46;49.70;;;36.90;;
9294;SDS011;4686;44.496;11.324;2023-04-08T00:47:13;45.00;;;36.20;;
9294;SDS011;4686;44.496;11.324;2023-04-08T00:49:41;45.90;;;36.83;;
9294;SDS011;4686;44.496;11.324;2023-04-08T00:52:10;50.70;;;39.17;;
9294;SDS011;4686;44.496;11.324;2023-04-08T00:54:37;47.60;;;36.47;;
9294;SDS011;4686;44.496;11.324;2023-04-08T00:57:04;46.93;;;37.67;;
9294;SDS011;4686;44.496;11.324;2023-04-08T00:59:32;47.47;;;37.50;;
9294;SDS011;4686;44.496;11.324;2023-04-08T01:02:02;46.50;;;37.87;;
9294;SDS011;4686;44.496;11.324;2023-04-08T01:04:45;45.07;;;36.33;;
9294;SDS011;4686;44.496;11.324;2023-04-08T01:07:19;44.67;;;36.60;;
9294;SDS011;4686;44.496;11.324;2023-04-08T01:09:50;43.57;;;36.20;;
9294;SDS011;4686;44.496;11.324;2023-04-08T01:12:19;49.33;;;37.47;;
9294;SDS011;4686;44.496;11.324;2023-04-08T01:14:48;46.83;;;37.20;;
9294;SDS011;4686;44.496;11.324;2023-04-08T01:17:17;45.57;;;37.97;;
9294;SDS011;4686;44.496;11.324;2023-04-08T01:19:45;46.23;;;37.53;;
9294;SDS011;4686;44.496;11.324;2023-04-08T01:22:15;44.60;;;36.80;;
9294;SDS011;4686;44.496;11.324;2023-04-08T01:24:46;44.17;;;36.50;;
9294;SDS011;4686;44.496;11.324;2023-04-08T01:27:15;45.83;;;37.20;;
9294;SDS011;4686;44.496;11.324;2023-04-08T01:29:43;48.93;;;38.03;;
9294;SDS011;4686;44.496;11.324;2023-04-08T01:32:11;50.00;;;37.10;;
9294;SDS011;4686;44.496;11.324;2023-04-08T01:34:39;49.17;;;38.47;;
9294;SDS011;4686;44.496;11.324;2023-04-08T01:37:07;48.17;;;36.37;;
9294;SDS011;4686;44.496;11.324;2023-04-08T01:39:35;48.53;;;37.97;;
9294;SDS011;4686;44.496;11.324;2023-04-08T01:42:03;49.93;;;36.27;;
9294;SDS011;4686;44.496;11.324;2023-04-08T01:44:32;46.67;;;36.60;;
9294;SDS011;4686;44.496;11.324;2023-04-08T01:46:59;48.27;;;38.10;;
9294;SDS011;4686;44.496;11.324;2023-04-08T01:49:27;49.33;;;38.00;;
9294;SDS011;4686;44.496;11.324;2023-04-08T01:51:55;44.60;;;36.50;;
9294;SDS011;4686;44.496;11.324;2023-04-08T01:54:23;46.10;;;36.57;;
9294;SDS011;4686;44.496;11.324;2023-04-08T01:56:50;44.10;;;35.77;;
9294;SDS011;4686;44.496;11.324;2023-04-08T01:59:20;44.67;;;36.90;;
9294;SDS011;4686;44.496;11.324;2023-04-08T02:01:52;44.20;;;37.70;;
9294;SDS011;4686;44.496;11.324;2023-04-08T02:04:20;48.33;;;37.20;;
9294;SDS011;4686;44.496;11.324;2023-04-08T02:06:48;49.17;;;37.20;;
9294;SDS011;4686;44.496;11.324;2023-04-08T02:09:16;44.83;;;36.70;;
9294;SDS011;4686;44.496;11.324;2023-04-08T02:11:43;49.53;;;38.47;;
9294;SDS011;4686;44.496;11.324;2023-04-08T02:14:10;50.17;;;37.90;;
9294;SDS011;4686;44.496;11.324;2023-04-08T02:16:38;45.87;;;37.70;;
9294;SDS011;4686;44.496;11.324;2023-04-08T02:19:08;49.20;;;37.13;;
9294;SDS011;4686;44.496;11.324;2023-04-08T02:21:37;45.17;;;36.70;;
9294;SDS011;4686;44.496;11.324;2023-04-08T02:24:07;49.83;;;36.90;;
9294;SDS011;4686;44.496;11.324;2023-04-08T02:26:35;49.00;;;35.73;;
9294;SDS011;4686;44.496;11.324;2023-04-08T02:29:03;42.93;;;36.90;;
9294;SDS011;4686;44.496;11.324;2023-04-08T02:31:31;44.70;;;35.90;;
9294;SDS011;4686;44.496;11.324;2023-04-08T02:33:59;40.83;;;34.37;;
9294;SDS011;4686;44.496;11.324;2023-04-08T02:36:28;44.37;;;35.13;;
9294;SDS011;4686;44.496;11.324;2023-04-08T02:38:57;41.13;;;33.70;;
9294;SDS011;4686;44.496;11.324;2023-04-08T02:41:26;43.53;;;35.53;;
9294;SDS011;4686;44.496;11.324;2023-04-08T02:43:54;42.40;;;33.57;;
9294;SDS011;4686;44.496;11.324;2023-04-08T02:46:21;43.30;;;34.77;;
9294;SDS011;4686;44.496;11.324;2023-04-08T02:48:48;45.23;;;37.27;;
9294;SDS011;4686;44.496;11.324;2023-04-08T02:51:15;42.90;;;35.30;;
9294;SDS011;4686;44.496;11.324;2023-04-08T02:53:44;42.40;;;35.53;;
9294;SDS011;4686;44.496;11.324;2023-04-08T02:56:11;42.30;;;33.57;;
9294;SDS011;4686;44.496;11.324;2023-04-08T02:58:38;41.70;;;33.60;;
9294;SDS011;4686;44.496;11.324;2023-04-08T03:01:06;41.77;;;32.57;;
9294;SDS011;4686;44.496;11.324;2023-04-08T03:03:33;43.80;;;33.73;;
9294;SDS011;4686;44.496;11.324;2023-04-08T03:06:00;39.47;;;32.43;;
9294;SDS011;4686;44.496;11.324;2023-04-08T03:08:27;41.05;;;34.40;;
9294;SDS011;4686;44.496;11.324;2023-04-08T03:10:56;42.80;;;35.00;;
9294;SDS011;4686;44.496;11.324;2023-04-08T03:13:23;39.10;;;31.80;;
9294;SDS011;4686;44.496;11.324;2023-04-08T03:15:51;42.23;;;32.53;;
9294;SDS011;4686;44.496;11.324;2023-04-08T03:18:18;43.60;;;33.87;;
9294;SDS011;4686;44.496;11.324;2023-04-08T03:20:45;40.20;;;32.20;;
9294;SDS011;4686;44.496;11.324;2023-04-08T03:23:12;40.83;;;31.63;;
9294;SDS011;4686;44.496;11.324;2023-04-08T03:25:40;45.73;;;32.60;;
9294;SDS011;4686;44.496;11.324;2023-04-08T03:28:08;40.67;;;32.60;;
9294;SDS011;4686;44.496;11.324;2023-04-08T03:30:36;41.10;;;32.70;;
9294;SDS011;4686;44.496;11.324;2023-04-08T03:33:03;41.33;;;33.87;;
9294;SDS011;4686;44.496;11.324;2023-04-08T03:35:32;37.97;;;31.47;;
9294;SDS011;4686;44.496;11.324;2023-04-08T03:37:59;44.33;;;33.33;;
9294;SDS011;4686;44.496;11.324;2023-04-08T03:40:26;43.60;;;35.57;;
9294;SDS011;4686;44.496;11.324;2023-04-08T03:42:54;45.20;;;33.77;;
9294;SDS011;4686;44.496;11.324;2023-04-08T03:45:23;45.17;;;33.37;;
9294;SDS011;4686;44.496;11.324;2023-04-08T03:47:50;45.90;;;33.47;;
9294;SDS011;4686;44.496;11.324;2023-04-08T03:50:17;41.67;;;32.83;;
9294;SDS011;4686;44.496;11.324;2023-04-08T03:52:45;42.30;;;33.47;;
9294;SDS011;4686;44.496;11.324;2023-04-08T03:55:12;40.70;;;32.60;;
9294;SDS011;4686;44.496;11.324;2023-04-08T03:57:39;41.03;;;32.53;;
9294;SDS011;4686;44.496;11.324;2023-04-08T04:00:07;40.63;;;32.77;;
9294;SDS011;4686;44.496;11.324;2023-04-08T04:02:35;44.70;;;34.70;;
9294;SDS011;4686;44.496;11.324;2023-04-08T04:05:03;44.03;;;34.00;;
9294;SDS011;4686;44.496;11.324;2023-04-08T04:07:30;46.20;;;34.77;;
9294;SDS011;4686;44.496;11.324;2023-04-08T04:09:57;45.43;;;34.40;;
9294;SDS011;4686;44.496;11.324;2023-04-08T04:12:24;43.90;;;34.77;;
9294;SDS011;4686;44.496;11.324;2023-04-08T04:14:51;44.73;;;35.23;;
9294;SDS011;4686;44.496;11.324;2023-04-08T04:17:19;42.87;;;34.20;;
9294;SDS011;4686;44.496;11.324;2023-04-08T04:19:48;41.73;;;33.10;;
9294;SDS011;4686;44.496;11.324;2023-04-08T04:22:15;46.63;;;35.70;;
9294;SDS011;4686;44.496;11.324;2023-04-08T04:24:45;42.83;;;35.43;;
9294;SDS011;4686;44.496;11.324;2023-04-08T04:27:12;43.90;;;36.30;;
9294;SDS011;4686;44.496;11.324;2023-04-08T04:29:41;42.73;;;33.23;;
9294;SDS011;4686;44.496;11.324;2023-04-08T04:32:09;40.90;;;32.67;;
9294;SDS011;4686;44.496;11.324;2023-04-08T04:34:36;42.43;;;33.40;;
9294;SDS011;4686;44.496;11.324;2023-04-08T04:37:04;43.97;;;34.80;;
9294;SDS011;4686;44.496;11.324;2023-04-08T04:39:36;41.90;;;34.10;;
9294;SDS011;4686;44.496;11.324;2023-04-08T04:42:04;42.40;;;33.10;;
9294;SDS011;4686;44.496;11.324;2023-04-08T04:44:32;43.17;;;33.67;;
9294;SDS011;4686;44.496;11.324;2023-04-08T04:46:59;45.70;;;35.50;;
9294;SDS011;4686;44.496;11.324;2023-04-08T04:49:26;43.07;;;31.27;;
9294;SDS011;4686;44.496;11.324;2023-04-08T04:51:53;40.20;;;33.73;;
9294;SDS011;4686;44.496;11.324;2023-04-08T04:54:22;41.73;;;34.00;;
9294;SDS011;4686;44.496;11.324;2023-04-08T04:56:50;39.10;;;33.13;;
9294;SDS011;4686;44.496;11.324;2023-04-08T04:59:17;39.23;;;34.30;;
9294;SDS011;4686;44.496;11.324;2023-04-08T05:01:44;51.43;;;34.10;;
9294;SDS011;4686;44.496;11.324;2023-04-08T05:04:11;42.33;;;32.60;;
9294;SDS011;4686;44.496;11.324;2023-04-08T05:06:38;39.67;;;33.17;;
9294;SDS011;4686;44.496;11.324;2023-04-08T05:09:06;43.17;;;32.80;;
9294;SDS011;4686;44.496;11.324;2023-04-08T05:11:34;37.03;;;31.47;;
9294;SDS011;4686;44.496;11.324;2023-04-08T05:14:01;42.40;;;32.37;;
9294;SDS011;4686;44.496;11.324;2023-04-08T05:16:28;39.47;;;33.03;;
9294;SDS011;4686;44.496;11.324;2023-04-08T05:18:56;36.83;;;31.50;;
9294;SDS011;4686;44.496;11.324;2023-04-08T05:21:23;39.47;;;32.57;;
9294;SDS011;4686;44.496;11.324;2023-04-08T05:23:51;41.20;;;33.20;;
9294;SDS011;4686;44.496;11.324;2023-04-08T05:26:18;43.00;;;32.20;;
9294;SDS011;4686;44.496;11.324;2023-04-08T05:28:48;45.77;;;33.90;;
9294;SDS011;4686;44.496;11.324;2023-04-08T05:31:16;39.03;;;31.30;;
9294;SDS011;4686;44.496;11.324;2023-04-08T05:33:43;41.20;;;32.80;;
9294;SDS011;4686;44.496;11.324;2023-04-08T05:36:11;41.40;;;34.23;;
9294;SDS011;4686;44.496;11.324;2023-04-08T05:38:38;41.03;;;33.63;;
9294;SDS011;4686;44.496;11.324;2023-04-08T05:41:07;42.57;;;34.10;;
9294;SDS011;4686;44.496;11.324;2023-04-08T05:43:34;38.50;;;32.37;;
9294;SDS011;4686;44.496;11.324;2023-04-08T05:46:06;38.90;;;32.33;;
9294;SDS011;4686;44.496;11.324;2023-04-08T05:48:33;35.50;;;31.27;;
9294;SDS011;4686;44.496;11.324;2023-04-08T05:51:00;38.90;;;31.93;;
9294;SDS011;4686;44.496;11.324;2023-04-08T05:53:27;37.73;;;31.63;;
9294;SDS011;4686;44.496;11.324;2023-04-08T05:55:55;35.83;;;30.20;;
9294;SDS011;4686;44.496;11.324;2023-04-08T05:58:22;36.43;;;30.70;;
9294;SDS011;4686;44.496;11.324;2023-04-08T06:00:50;37.37;;;30.50;;
9294;SDS011;4686;44.496;11.324;2023-04-08T06:03:20;40.20;;;31.50;;
9294;SDS011;4686;44.496;11.324;2023-04-08T06:05:48;40.80;;;29.83;;
9294;SDS011;4686;44.496;11.324;2023-04-08T06:08:15;37.67;;;30.60;;
9294;SDS011;4686;44.496;11.324;2023-04-08T06:10:47;35.70;;;29.87;;
9294;SDS011;4686;44.496;11.324;2023-04-08T06:13:14;37.30;;;30.50;;
9294;SDS011;4686;44.496;11.324;2023-04-08T06:15:41;36.73;;;30.70;;
9294;SDS011;4686;44.496;11.324;2023-04-08T06:18:08;40.30;;;31.03;;
9294;SDS011;4686;44.496;11.324;2023-04-08T06:20:37;34.80;;;30.20;;
9294;SDS011;4686;44.496;11.324;2023-04-08T06:23:04;36.07;;;29.97;;
9294;SDS011;4686;44.496;11.324;2023-04-08T06:25:32;36.40;;;30.03;;
9294;SDS011;4686;44.496;11.324;2023-04-08T06:27:59;37.17;;;30.57;;
9294;SDS011;4686;44.496;11.324;2023-04-08T06:30:26;36.90;;;30.67;;
9294;SDS011;4686;44.496;11.324;2023-04-08T06:32:53;35.83;;;31.13;;
9294;SDS011;4686;44.496;11.324;2023-04-08T06:35:21;39.00;;;31.10;;
9294;SDS011;4686;44.496;11.324;2023-04-08T06:37:50;36.33;;;30.73;;
9294;SDS011;4686;44.496;11.324;2023-04-08T06:40:17;38.27;;;31.57;;
9294;SDS011;4686;44.496;11.324;2023-04-08T06:42:44;44.33;;;31.70;;
9294;SDS011;4686;44.496;11.324;2023-04-08T06:45:13;38.67;;;32.40;;
9294;SDS011;4686;44.496;11.324;2023-04-08T06:47:40;40.93;;;33.03;;
9294;SDS011;4686;44.496;11.324;2023-04-08T06:50:07;39.60;;;32.57;;
9294;SDS011;4686;44.496;11.324;2023-04-08T06:52:35;38.70;;;32.07;;
9294;SDS011;4686;44.496;11.324;2023-04-08T06:55:04;37.50;;;31.17;;
9294;SDS011;4686;44.496;11.324;2023-04-08T06:57:33;43.77;;;32.40;;
9294;SDS011;4686;44.496;11.324;2023-04-08T07:00:01;38.37;;;33.00;;
9294;SDS011;4686;44.496;11.324;2023-04-08T07:02:28;38.90;;;32.50;;
9294;SDS011;4686;44.496;11.324;2023-04-08T07:04:55;41.80;;;32.83;;
9294;SDS011;4686;44.496;11.324;2023-04-08T07:07:22;36.50;;;31.90;;
9294;SDS011;4686;44.496;11.324;2023-04-08T07:09:50;39.20;;;32.07;;
9294;SDS011;4686;44.496;11.324;2023-04-08T07:12:19;40.63;;;32.13;;
9294;SDS011;4686;44.496;11.324;2023-04-08T07:14:46;38.57;;;32.23;;
9294;SDS011;4686;44.496;11.324;2023-04-08T07:17:13;37.83;;;32.30;;
9294;SDS011;4686;44.496;11.324;2023-04-08T07:19:41;38.83;;;32.10;;
9294;SDS011;4686;44.496;11.324;2023-04-08T07:22:08;39.27;;;32.17;;
9294;SDS011;4686;44.496;11.324;2023-04-08T07:24:36;41.23;;;33.07;;
9294;SDS011;4686;44.496;11.324;2023-04-08T07:27:03;46.23;;;32.80;;
9294;SDS011;4686;44.496;11.324;2023-04-08T07:29:32;42.43;;;33.00;;
9294;SDS011;4686;44.496;11.324;2023-04-08T07:31:59;37.17;;;31.17;;
9294;SDS011;4686;44.496;11.324;2023-04-08T07:34:26;40.43;;;31.23;;
9294;SDS011;4686;44.496;11.324;2023-04-08T07:36:53;37.33;;;30.33;;
9294;SDS011;4686;44.496;11.324;2023-04-08T07:39:21;42.30;;;32.70;;
9294;SDS011;4686;44.496;11.324;2023-04-08T07:41:48;36.13;;;30.40;;
9294;SDS011;4686;44.496;11.324;2023-04-08T07:44:15;36.33;;;31.93;;
9294;SDS011;4686;44.496;11.324;2023-04-08T07:46:45;36.77;;;31.53;;
9294;SDS011;4686;44.496;11.324;2023-04-08T07:49:15;40.90;;;32.43;;
9294;SDS011;4686;44.496;11.324;2023-04-08T07:51:42;36.10;;;30.87;;
9294;SDS011;4686;44.496;11.324;2023-04-08T07:54:10;62.67;;;32.43;;
9294;SDS011;4686;44.496;11.324;2023-04-08T07:56:41;43.33;;;30.87;;
9294;SDS011;4686;44.496;11.324;2023-04-08T07:59:08;44.70;;;32.30;;
9294;SDS011;4686;44.496;11.324;2023-04-08T08:01:36;37.27;;;31.07;;
9294;SDS011;4686;44.496;11.324;2023-04-08T08:04:05;39.13;;;31.07;;
9294;SDS011;4686;44.496;11.324;2023-04-08T08:06:32;37.10;;;32.10;;
9294;SDS011;4686;44.496;11.324;2023-04-08T08:08:59;34.77;;;30.97;;
9294;SDS011;4686;44.496;11.324;2023-04-08T08:11:30;37.63;;;32.50;;
9294;SDS011;4686;44.496;11.324;2023-04-08T08:13:57;38.17;;;31.77;;
9294;SDS011;4686;44.496;11.324;2023-04-08T08:16:26;40.80;;;31.60;;
9294;SDS011;4686;44.496;11.324;2023-04-08T08:18:54;35.70;;;30.23;;
9294;SDS011;4686;44.496;11.324;2023-04-08T08:21:22;34.90;;;30.70;;
9294;SDS011;4686;44.496;11.324;2023-04-08T08:23:50;39.20;;;31.07;;
9294;SDS011;4686;44.496;11.324;2023-04-08T08:26:18;39.03;;;32.93;;
9294;SDS011;4686;44.496;11.324;2023-04-08T08:28:46;33.87;;;30.33;;
9294;SDS011;4686;44.496;11.324;2023-04-08T08:31:14;33.83;;;29.40;;
9294;SDS011;4686;44.496;11.324;2023-04-08T08:33:41;33.83;;;29.90;;
9294;SDS011;4686;44.496;11.324;2023-04-08T08:36:08;34.87;;;29.20;;
9294;SDS011;4686;44.496;11.324;2023-04-08T08:38:37;30.50;;;26.83;;
9294;SDS011;4686;44.496;11.324;2023-04-08T08:41:04;32.33;;;26.93;;
9294;SDS011;4686;44.496;11.324;2023-04-08T08:43:31;29.80;;;26.03;;
9294;SDS011;4686;44.496;11.324;2023-04-08T08:45:59;27.27;;;22.63;;
9294;SDS011;4686;44.496;11.324;2023-04-08T08:48:27;31.10;;;25.63;;
9294;SDS011;4686;44.496;11.324;2023-04-08T08:50:55;34.07;;;25.73;;
9294;SDS011;4686;44.496;11.324;2023-04-08T08:53:25;27.13;;;24.30;;
9294;SDS011;4686;44.496;11.324;2023-04-08T08:55:56;25.90;;;22.53;;
9294;SDS011;4686;44.496;11.324;2023-04-08T08:58:25;28.87;;;23.63;;
9294;SDS011;4686;44.496;11.324;2023-04-08T09:00:52;27.77;;;21.23;;
9294;SDS011;4686;44.496;11.324;2023-04-08T09:03:20;21.27;;;19.13;;
9294;SDS011;4686;44.496;11.324;2023-04-08T09:05:47;24.50;;;21.77;;
9294;SDS011;4686;44.496;11.324;2023-04-08T09:08:24;28.60;;;21.57;;
9294;SDS011;4686;44.496;11.324;2023-04-08T09:10:54;24.63;;;21.43;;
9294;SDS011;4686;44.496;11.324;2023-04-08T09:13:22;23.73;;;21.20;;
9294;SDS011;4686;44.496;11.324;2023-04-08T09:16:00;24.27;;;21.63;;
9294;SDS011;4686;44.496;11.324;2023-04-08T09:18:29;24.30;;;20.63;;
9294;SDS011;4686;44.496;11.324;2023-04-08T09:20:58;29.03;;;21.23;;
9294;SDS011;4686;44.496;11.324;2023-04-08T09:23:36;21.90;;;19.27;;
9294;SDS011;4686;44.496;11.324;2023-04-08T09:26:07;28.83;;;20.30;;
9294;SDS011;4686;44.496;11.324;2023-04-08T09:28:37;21.97;;;19.77;;
9294;SDS011;4686;44.496;11.324;2023-04-08T09:31:20;21.90;;;19.60;;
9294;SDS011;4686;44.496;11.324;2023-04-08T09:33:51;26.37;;;22.37;;
9294;SDS011;4686;44.496;11.324;2023-04-08T09:36:19;22.40;;;20.00;;
9294;SDS011;4686;44.496;11.324;2023-04-08T09:38:46;21.43;;;19.27;;
9294;SDS011;4686;44.496;11.324;2023-04-08T09:41:14;23.97;;;20.77;;
9294;SDS011;4686;44.496;11.324;2023-04-08T09:43:43;24.00;;;20.60;;
9294;SDS011;4686;44.496;11.324;2023-04-08T09:46:13;24.57;;;20.00;;
9294;SDS011;4686;44.496;11.324;2023-04-08T09:48:44;23.40;;;20.63;;
9294;SDS011;4686;44.496;11.324;2023-04-08T09:51:12;23.47;;;21.07;;
9294;SDS011;4686;44.496;11.324;2023-04-08T09:53:45;23.20;;;20.50;;
9294;SDS011;4686;44.496;11.324;2023-04-08T09:56:14;28.00;;;24.90;;
9294;SDS011;4686;44.496;11.324;2023-04-08T09:58:51;25.10;;;21.40;;
9294;SDS011;4686;44.496;11.324;2023-04-08T10:01:23;26.43;;;22.40;;
9294;SDS011;4686;44.496;11.324;2023-04-08T10:03:53;25.60;;;21.37;;
9294;SDS011;4686;44.496;11.324;2023-04-08T10:06:23;24.00;;;20.90;;
9294;SDS011;4686;44.496;11.324;2023-04-08T10:08:54;24.10;;;21.50;;
9294;SDS011;4686;44.496;11.324;2023-04-08T10:11:22;25.23;;;20.87;;
9294;SDS011;4686;44.496;11.324;2023-04-08T10:13:50;25.60;;;21.70;;
9294;SDS011;4686;44.496;11.324;2023-04-08T10:16:18;22.60;;;20.40;;
9294;SDS011;4686;44.496;11.324;2023-04-08T10:18:46;24.00;;;21.50;;
9294;SDS011;4686;44.496;11.324;2023-04-08T10:21:36;28.97;;;21.77;;
9294;SDS011;4686;44.496;11.324;2023-04-08T10:24:12;21.90;;;19.60;;
9294;SDS011;4686;44.496;11.324;2023-04-08T10:26:39;24.90;;;20.87;;
9294;SDS011;4686;44.496;11.324;2023-04-08T10:31:56;20.33;;;18.30;;
9294;SDS011;4686;44.496;11.324;2023-04-08T10:34:24;21.00;;;18.80;;
9294;SDS011;4686;44.496;11.324;2023-04-08T10:36:52;20.80;;;18.70;;
9294;SDS011;4686;44.496;11.324;2023-04-08T10:39:21;20.30;;;18.30;;
9294;SDS011;4686;44.496;11.324;2023-04-08T10:41:48;33.10;;;27.73;;
9294;SDS011;4686;44.496;11.324;2023-04-08T10:44:16;28.87;;;25.60;;
9294;SDS011;4686;44.496;11.324;2023-04-08T10:46:43;34.20;;;27.20;;
9294;SDS011;4686;44.496;11.324;2023-04-08T10:49:13;21.20;;;19.00;;
9294;SDS011;4686;44.496;11.324;2023-04-08T10:51:40;24.10;;;19.90;;
9294;SDS011;4686;44.496;11.324;2023-04-08T10:54:10;23.40;;;21.00;;
9294;SDS011;4686;44.496;11.324;2023-04-08T10:56:42;21.93;;;19.60;;
9294;SDS011;4686;44.496;11.324;2023-04-08T10:59:10;25.13;;;20.70;;
9294;SDS011;4686;44.496;11.324;2023-04-08T11:01:40;28.73;;;23.63;;
9294;SDS011;4686;44.496;11.324;2023-04-08T11:04:16;21.53;;;19.43;;
9294;SDS011;4686;44.496;11.324;2023-04-08T11:06:44;20.27;;;18.20;;
9294;SDS011;4686;44.496;11.324;2023-04-08T11:09:13;21.57;;;19.37;;
9294;SDS011;4686;44.496;11.324;2023-04-08T11:11:41;33.40;;;26.57;;
9294;SDS011;4686;44.496;11.324;2023-04-08T11:14:09;18.90;;;16.90;;
9294;SDS011;4686;44.496;11.324;2023-04-08T11:16:36;19.87;;;18.07;;
9294;SDS011;4686;44.496;11.324;2023-04-08T11:19:03;22.00;;;18.47;;
9294;SDS011;4686;44.496;11.324;2023-04-08T11:21:35;20.63;;;18.50;;
9294;SDS011;4686;44.496;11.324;2023-04-08T11:24:06;21.13;;;19.03;;
9294;SDS011;4686;44.496;11.324;2023-04-08T11:26:36;20.17;;;18.00;;
9294;SDS011;4686;44.496;11.324;2023-04-08T11:29:04;20.10;;;18.00;;
9294;SDS011;4686;44.496;11.324;2023-04-08T11:31:33;19.07;;;17.27;;
9294;SDS011;4686;44.496;11.324;2023-04-08T11:34:00;18.53;;;16.63;;
9294;SDS011;4686;44.496;11.324;2023-04-08T11:36:30;19.03;;;17.17;;
9294;SDS011;4686;44.496;11.324;2023-04-08T11:39:00;20.30;;;17.90;;
9294;SDS011;4686;44.496;11.324;2023-04-08T11:41:34;20.87;;;18.80;;
9294;SDS011;4686;44.496;11.324;2023-04-08T11:44:02;18.73;;;16.57;;
9294;SDS011;4686;44.496;11.324;2023-04-08T11:46:37;17.13;;;15.63;;
9294;SDS011;4686;44.496;11.324;2023-04-08T11:49:19;20.77;;;18.57;;
9294;SDS011;4686;44.496;11.324;2023-04-08T11:51:53;17.37;;;15.40;;
9294;SDS011;4686;44.496;11.324;2023-04-08T11:54:30;21.17;;;17.87;;
9294;SDS011;4686;44.496;11.324;2023-04-08T11:57:01;14.60;;;13.10;;
9294;SDS011;4686;44.496;11.324;2023-04-08T11:59:29;18.63;;;14.70;;
9294;SDS011;4686;44.496;11.324;2023-04-08T12:01:56;20.60;;;14.13;;
9294;SDS011;4686;44.496;11.324;2023-04-08T12:04:24;16.20;;;14.60;;
9294;SDS011;4686;44.496;11.324;2023-04-08T12:06:51;18.87;;;16.90;;
9294;SDS011;4686;44.496;11.324;2023-04-08T12:09:18;16.00;;;14.40;;
9294;SDS011;4686;44.496;11.324;2023-04-08T12:11:47;16.03;;;14.20;;
9294;SDS011;4686;44.496;11.324;2023-04-08T12:14:14;19.63;;;17.33;;
9294;SDS011;4686;44.496;11.324;2023-04-08T12:16:42;20.07;;;17.27;;
9294;SDS011;4686;44.496;11.324;2023-04-08T12:19:09;33.10;;;25.00;;
9294;SDS011;4686;44.496;11.324;2023-04-08T12:21:38;21.30;;;17.90;;
9294;SDS011;4686;44.496;11.324;2023-04-08T12:24:05;15.90;;;13.67;;
9294;SDS011;4686;44.496;11.324;2023-04-08T12:26:33;15.57;;;14.07;;
9294;SDS011;4686;44.496;11.324;2023-04-08T12:29:01;15.67;;;14.00;;
9294;SDS011;4686;44.496;11.324;2023-04-08T12:31:29;16.67;;;15.03;;
9294;SDS011;4686;44.496;11.324;2023-04-08T12:33:56;19.50;;;13.67;;
9294;SDS011;4686;44.496;11.324;2023-04-08T12:36:24;27.17;;;21.80;;
9294;SDS011;4686;44.496;11.324;2023-04-08T12:38:52;13.53;;;12.20;;
9294;SDS011;4686;44.496;11.324;2023-04-08T12:41:19;14.27;;;12.77;;
9294;SDS011;4686;44.496;11.324;2023-04-08T12:43:47;11.77;;;8.97;;
9294;SDS011;4686;44.496;11.324;2023-04-08T12:46:15;9.20;;;7.80;;
9294;SDS011;4686;44.496;11.324;2023-04-08T12:48:43;10.60;;;8.67;;
9294;SDS011;4686;44.496;11.324;2023-04-08T12:51:10;8.23;;;6.33;;
9294;SDS011;4686;44.496;11.324;2023-04-08T12:53:38;7.00;;;6.30;;
9294;SDS011;4686;44.496;11.324;2023-04-08T12:56:05;10.30;;;8.87;;
9294;SDS011;4686;44.496;11.324;2023-04-08T12:58:35;6.40;;;5.70;;
9294;SDS011;4686;44.496;11.324;2023-04-08T13:01:02;5.97;;;5.57;;
9294;SDS011;4686;44.496;11.324;2023-04-08T13:03:31;7.07;;;6.47;;
9294;SDS011;4686;44.496;11.324;2023-04-08T13:06:00;7.53;;;6.90;;
9294;SDS011;4686;44.496;11.324;2023-04-08T13:08:27;7.43;;;6.73;;
9294;SDS011;4686;44.496;11.324;2023-04-08T13:10:54;10.50;;;9.40;;
9294;SDS011;4686;44.496;11.324;2023-04-08T13:13:22;8.50;;;7.80;;
9294;SDS011;4686;44.496;11.324;2023-04-08T13:15:50;10.20;;;9.10;;
9294;SDS011;4686;44.496;11.324;2023-04-08T13:18:18;9.40;;;8.50;;
9294;SDS011;4686;44.496;11.324;2023-04-08T13:20:46;8.13;;;7.40;;
9294;SDS011;4686;44.496;11.324;2023-04-08T13:23:14;7.43;;;6.73;;
9294;SDS011;4686;44.496;11.324;2023-04-08T13:25:42;9.20;;;7.40;;
9294;SDS011;4686;44.496;11.324;2023-04-08T13:28:10;7.63;;;7.03;;
9294;SDS011;4686;44.496;11.324;2023-04-08T13:30:38;7.97;;;7.37;;
9294;SDS011;4686;44.496;11.324;2023-04-08T13:33:05;6.90;;;6.40;;
9294;SDS011;4686;44.496;11.324;2023-04-08T13:35:32;7.07;;;6.50;;
9294;SDS011;4686;44.496;11.324;2023-04-08T13:38:01;7.00;;;6.40;;
9294;SDS011;4686;44.496;11.324;2023-04-08T13:40:28;7.33;;;6.63;;
9294;SDS011;4686;44.496;11.324;2023-04-08T13:42:56;7.80;;;7.00;;
9294;SDS011;4686;44.496;11.324;2023-04-08T13:45:23;6.77;;;6.23;;
9294;SDS011;4686;44.496;11.324;2023-04-08T13:47:50;8.73;;;7.00;;
9294;SDS011;4686;44.496;11.324;2023-04-08T13:50:17;7.13;;;6.57;;
9294;SDS011;4686;44.496;11.324;2023-04-08T13:52:45;6.47;;;5.97;;
9294;SDS011;4686;44.496;11.324;2023-04-08T13:55:13;6.97;;;6.47;;
9294;SDS011;4686;44.496;11.324;2023-04-08T13:57:41;6.70;;;6.20;;
9294;SDS011;4686;44.496;11.324;2023-04-08T14:00:17;6.63;;;6.20;;
9294;SDS011;4686;44.496;11.324;2023-04-08T14:02:44;6.87;;;6.37;;
9294;SDS011;4686;44.496;11.324;2023-04-08T14:05:12;6.50;;;6.10;;
9294;SDS011;4686;44.496;11.324;2023-04-08T14:07:40;6.63;;;6.23;;
9294;SDS011;4686;44.496;11.324;2023-04-08T14:10:08;6.63;;;6.20;;
9294;SDS011;4686;44.496;11.324;2023-04-08T14:12:37;6.60;;;6.13;;
9294;SDS011;4686;44.496;11.324;2023-04-08T14:15:05;7.40;;;6.70;;
9294;SDS011;4686;44.496;11.324;2023-04-08T14:17:35;7.73;;;7.07;;
9294;SDS011;4686;44.496;11.324;2023-04-08T14:20:03;6.43;;;6.03;;
9294;SDS011;4686;44.496;11.324;2023-04-08T14:22:31;7.87;;;7.17;;
9294;SDS011;4686;44.496;11.324;2023-04-08T14:24:58;7.07;;;6.40;;
9294;SDS011;4686;44.496;11.324;2023-04-08T14:27:26;6.50;;;6.00;;
9294;SDS011;4686;44.496;11.324;2023-04-08T14:29:54;5.73;;;5.30;;
9294;SDS011;4686;44.496;11.324;2023-04-08T14:32:21;5.87;;;5.47;;
9294;SDS011;4686;44.496;11.324;2023-04-08T14:34:49;6.07;;;5.57;;
9294;SDS011;4686;44.496;11.324;2023-04-08T14:37:16;5.67;;;5.37;;
9294;SDS011;4686;44.496;11.324;2023-04-08T14:39:44;7.17;;;5.20;;
9294;SDS011;4686;44.496;11.324;2023-04-08T14:42:11;4.93;;;4.60;;
9294;SDS011;4686;44.496;11.324;2023-04-08T14:44:40;10.83;;;8.40;;
9294;SDS011;4686;44.496;11.324;2023-04-08T14:47:09;5.50;;;5.10;;